Time;durP1;ratioP1;P1;durP2;ratioP2;P2;SDS_P1;SDS_P2;PMS_P1;PMS_P2;Temp;Humidity;BMP_temperature;BMP_pressure;BME280_temperature;BME280_humidity;BME280_pressure;Samples;Min_cycle;Max_cycle;Signal;HPM_P1;HPM_P2
2022/12/24 00:00:17;;;;;;;10.93;1.90;;;;;;;;;;4982963;28;20054;-91
2022/12/24 00:02:44;;;;;;;15.25;2.53;;;;;;;;;;4979808;28;20050;-91
2022/12/24 00:05:11;;;;;;;5.90;1.70;;;;;;;;;;4979666;28;20137;-91
2022/12/24 00:07:39;;;;;;;7.70;1.85;;;;;;;;;;4986694;28;20050;-91
2022/12/24 00:10:06;;;;;;;8.30;1.98;;;;;;;;;;4978406;28;20141;-92
2022/12/24 00:12:34;;;;;;;11.73;2.97;;;;;;;;;;4979715;28;20051;-92
2022/12/24 00:15:02;;;;;;;6.63;2.20;;;;;;;;;;4979322;28;20475;-92
2022/12/24 00:17:30;;;;;;;11.35;2.05;;;;;;;;;;4979692;28;20042;-91
2022/12/24 00:19:57;;;;;;;10.38;2.13;;;;;;;;;;4979581;28;20406;-92
2022/12/24 00:22:25;;;;;;;9.13;1.80;;;;;;;;;;4979167;28;20048;-91
2022/12/24 00:24:52;;;;;;;8.70;2.22;;;;;;;;;;4979283;28;20046;-91
2022/12/24 00:27:19;;;;;;;8.60;2.20;;;;;;;;;;4979298;28;20056;-91
2022/12/24 00:29:47;;;;;;;16.42;2.35;;;;;;;;;;4979282;28;20056;-91
2022/12/24 00:32:14;;;;;;;6.03;2.78;;;;;;;;;;4979369;28;20056;-91
2022/12/24 00:34:41;;;;;;;11.15;2.55;;;;;;;;;;4978951;28;20145;-91
2022/12/24 00:37:09;;;;;;;9.50;3.20;;;;;;;;;;4979111;28;20054;-91
2022/12/24 00:39:36;;;;;;;13.07;2.53;;;;;;;;;;4979076;28;20562;-91
2022/12/24 00:42:05;;;;;;;13.38;2.45;;;;;;;;;;4979368;28;20062;-91
2022/12/24 00:44:32;;;;;;;7.28;1.80;;;;;;;;;;4979032;28;20062;-90
2022/12/24 00:47:00;;;;;;;6.25;1.67;;;;;;;;;;4978971;28;20054;-91
2022/12/24 00:49:34;;;;;;;10.60;2.00;;;;;;;;;;4979828;28;20082;-91
2022/12/24 00:52:02;;;;;;;4.30;1.65;;;;;;;;;;4995644;28;20059;-91
2022/12/24 00:54:29;;;;;;;4.90;1.30;;;;;;;;;;4995537;28;20557;-90
2022/12/24 00:56:56;;;;;;;3.63;1.05;;;;;;;;;;4978530;28;20050;-91
2022/12/24 00:59:24;;;;;;;6.93;1.38;;;;;;;;;;4978779;28;20089;-91
2022/12/24 01:01:51;;;;;;;7.20;1.90;;;;;;;;;;4978622;28;20057;-91
2022/12/24 01:07:05;;;;;;;8.07;1.40;;;;;;;;;;4995591;28;20050;-90
2022/12/24 01:09:32;;;;;;;8.10;2.13;;;;;;;;;;4978391;28;20092;-92
2022/12/24 01:11:59;;;;;;;17.30;1.98;;;;;;;;;;4978400;28;20407;-91
2022/12/24 01:14:27;;;;;;;8.23;1.92;;;;;;;;;;4978204;28;20046;-90
2022/12/24 01:16:54;;;;;;;9.60;2.00;;;;;;;;;;4977995;28;20506;-90
2022/12/24 01:19:21;;;;;;;5.03;1.20;;;;;;;;;;4978222;28;20093;-90
2022/12/24 01:21:49;;;;;;;8.07;1.88;;;;;;;;;;4977597;28;20510;-90
2022/12/24 01:24:16;;;;;;;5.20;1.40;;;;;;;;;;4977891;28;20054;-91
2022/12/24 01:26:43;;;;;;;7.68;1.23;;;;;;;;;;4977944;28;20419;-90
2022/12/24 01:29:11;;;;;;;7.18;1.52;;;;;;;;;;4994993;28;20050;-90
2022/12/24 01:31:38;;;;;;;6.10;1.27;;;;;;;;;;4978258;28;20042;-90
2022/12/24 01:34:05;;;;;;;8.70;1.70;;;;;;;;;;4994850;28;20510;-90
2022/12/24 01:36:33;;;;;;;13.32;1.67;;;;;;;;;;4977829;28;20058;-90
2022/12/24 01:39:00;;;;;;;8.95;1.85;;;;;;;;;;4977392;28;20054;-90
2022/12/24 01:44:16;;;;;;;8.98;1.90;;;;;;;;;;4994380;28;20058;-90
2022/12/24 01:46:44;;;;;;;12.02;2.45;;;;;;;;;;4994645;28;20054;-89
2022/12/24 01:49:13;;;;;;;9.30;1.70;;;;;;;;;;4977653;28;20054;-89
2022/12/24 01:51:46;;;;;;;7.57;1.40;;;;;;;;;;4977718;28;20050;-90
2022/12/24 01:54:18;;;;;;;10.45;1.95;;;;;;;;;;4994592;28;20145;-89
2022/12/24 01:56:48;;;;;;;8.00;1.83;;;;;;;;;;4997123;28;20384;-90
2022/12/24 01:59:17;;;;;;;6.22;1.55;;;;;;;;;;5014115;28;20065;-90
2022/12/24 02:01:46;;;;;;;10.27;1.95;;;;;;;;;;4996641;28;20220;-89
2022/12/24 02:04:25;;;;;;;10.20;2.20;;;;;;;;;;4997028;28;20116;-89
2022/12/24 02:06:52;;;;;;;5.65;1.70;;;;;;;;;;4996896;28;20046;-89
2022/12/24 02:09:19;;;;;;;7.88;1.80;;;;;;;;;;4996644;28;20142;-89
2022/12/24 02:11:46;;;;;;;7.63;1.58;;;;;;;;;;4996759;28;20050;-89
2022/12/24 02:14:15;;;;;;;7.15;1.80;;;;;;;;;;4996735;28;20058;-89
2022/12/24 02:17:01;;;;;;;9.23;1.52;;;;;;;;;;4996748;28;20425;-89
2022/12/24 02:19:43;;;;;;;10.95;2.00;;;;;;;;;;4996712;28;20124;-89
2022/12/24 02:22:16;;;;;;;10.70;2.00;;;;;;;;;;5014140;28;20465;-89
2022/12/24 02:24:54;;;;;;;10.98;2.35;;;;;;;;;;5013255;28;20054;-89
2022/12/24 02:27:28;;;;;;;6.60;1.55;;;;;;;;;;4996990;28;20483;-89
2022/12/24 02:30:04;;;;;;;8.45;1.75;;;;;;;;;;4996721;28;20513;-89
2022/12/24 02:32:39;;;;;;;9.32;1.58;;;;;;;;;;4997976;28;20502;-89
2022/12/24 02:35:15;;;;;;;4.53;1.63;;;;;;;;;;5000715;28;20045;-89
2022/12/24 02:37:45;;;;;;;4.65;1.48;;;;;;;;;;5017838;28;20056;-89
2022/12/24 02:40:24;;;;;;;10.75;1.65;;;;;;;;;;5017638;28;20042;-89
2022/12/24 02:42:54;;;;;;;7.55;1.42;;;;;;;;;;5000302;28;20050;-89
2022/12/24 02:45:23;;;;;;;6.13;1.65;;;;;;;;;;5017437;28;20057;-89
2022/12/24 02:47:51;;;;;;;9.02;1.92;;;;;;;;;;5000469;28;20050;-89
2022/12/24 02:50:18;;;;;;;6.68;1.13;;;;;;;;;;5017508;28;20077;-89
2022/12/24 02:52:46;;;;;;;9.88;1.60;;;;;;;;;;5000179;28;20525;-89
2022/12/24 02:55:29;;;;;;;6.03;1.52;;;;;;;;;;5000199;28;20421;-89
2022/12/24 02:58:06;;;;;;;7.63;1.25;;;;;;;;;;5000018;28;20534;-89
2022/12/24 03:00:51;;;;;;;10.00;1.48;;;;;;;;;;4999928;28;20053;-89
2022/12/24 03:03:29;;;;;;;5.80;1.17;;;;;;;;;;4999926;28;20048;-89
2022/12/24 03:06:16;;;;;;;12.13;2.00;;;;;;;;;;4999718;28;20065;-89
2022/12/24 03:09:08;;;;;;;3.33;1.38;;;;;;;;;;4999995;28;20563;-89
2022/12/24 03:11:36;;;;;;;8.63;1.85;;;;;;;;;;5000118;28;20471;-89
2022/12/24 03:14:03;;;;;;;11.65;2.08;;;;;;;;;;5000193;28;20056;-88
2022/12/24 03:16:30;;;;;;;9.90;1.90;;;;;;;;;;4999772;28;20054;-89
2022/12/24 03:18:58;;;;;;;17.90;2.08;;;;;;;;;;4999834;28;20049;-88
2022/12/24 03:21:28;;;;;;;14.00;1.70;;;;;;;;;;5000133;28;20479;-89
2022/12/24 03:23:56;;;;;;;11.00;2.05;;;;;;;;;;4999582;28;20041;-88
2022/12/24 03:26:24;;;;;;;15.23;2.72;;;;;;;;;;4999836;28;20054;-89
2022/12/24 03:28:51;;;;;;;12.02;1.67;;;;;;;;;;4999563;28;20053;-89
2022/12/24 03:31:19;;;;;;;9.18;1.70;;;;;;;;;;4999573;28;20049;-88
2022/12/24 03:33:47;;;;;;;7.10;1.50;;;;;;;;;;5016434;28;20461;-89
2022/12/24 03:36:14;;;;;;;7.32;1.27;;;;;;;;;;4999519;28;20049;-88
2022/12/24 03:38:41;;;;;;;11.43;2.20;;;;;;;;;;4999490;28;20136;-89
2022/12/24 03:41:09;;;;;;;8.95;1.70;;;;;;;;;;4999227;28;20052;-90
2022/12/24 03:43:36;;;;;;;9.23;1.80;;;;;;;;;;4998622;28;20054;-89
2022/12/24 03:46:05;;;;;;;12.13;1.52;;;;;;;;;;4999532;28;20502;-89
2022/12/24 03:48:34;;;;;;;16.70;2.42;;;;;;;;;;4999461;28;20056;-89
2022/12/24 03:51:01;;;;;;;15.05;2.35;;;;;;;;;;4999526;28;20046;-89
2022/12/24 03:53:29;;;;;;;11.27;1.58;;;;;;;;;;4998598;28;20101;-89
2022/12/24 03:55:56;;;;;;;12.93;2.25;;;;;;;;;;5016271;28;20046;-89
2022/12/24 03:58:23;;;;;;;6.00;1.55;;;;;;;;;;4999000;28;20461;-89
2022/12/24 04:00:52;;;;;;;12.98;2.05;;;;;;;;;;4997768;28;20042;-89
2022/12/24 04:03:19;;;;;;;11.10;1.73;;;;;;;;;;4998856;28;20049;-89
2022/12/24 04:05:47;;;;;;;6.97;1.50;;;;;;;;;;5016077;28;20084;-89
2022/12/24 04:08:14;;;;;;;12.10;2.42;;;;;;;;;;4998885;28;20049;-89
2022/12/24 04:10:41;;;;;;;8.85;1.60;;;;;;;;;;4998821;28;20076;-89
2022/12/24 04:13:08;;;;;;;9.90;1.83;;;;;;;;;;4999029;28;20045;-88
2022/12/24 04:15:36;;;;;;;15.98;1.85;;;;;;;;;;5015861;28;20068;-89
2022/12/24 04:18:03;;;;;;;11.27;1.95;;;;;;;;;;5015795;28;20052;-89
2022/12/24 04:20:30;;;;;;;10.50;2.30;;;;;;;;;;5015771;28;20565;-89
2022/12/24 04:22:57;;;;;;;9.75;1.95;;;;;;;;;;4998550;28;20060;-89
2022/12/24 04:25:25;;;;;;;9.48;2.15;;;;;;;;;;4998556;28;20504;-89
2022/12/24 04:27:52;;;;;;;15.55;2.65;;;;;;;;;;4998619;28;20045;-89
2022/12/24 04:30:19;;;;;;;16.67;2.17;;;;;;;;;;4998361;28;20422;-89
2022/12/24 04:32:46;;;;;;;8.32;1.98;;;;;;;;;;5015548;28;20048;-88
2022/12/24 04:35:13;;;;;;;8.98;1.88;;;;;;;;;;5015420;28;20141;-90
2022/12/24 04:37:41;;;;;;;10.98;1.85;;;;;;;;;;4998303;28;20046;-89
2022/12/24 04:40:08;;;;;;;16.77;2.42;;;;;;;;;;5015186;28;20144;-89
2022/12/24 04:42:35;;;;;;;11.65;1.67;;;;;;;;;;4998325;28;20479;-89
2022/12/24 04:45:02;;;;;;;8.43;1.88;;;;;;;;;;5015251;28;20050;-89
2022/12/24 04:47:30;;;;;;;13.75;1.80;;;;;;;;;;5015353;28;20052;-89
2022/12/24 04:49:58;;;;;;;11.95;2.17;;;;;;;;;;4998286;28;20053;-89
2022/12/24 04:52:25;;;;;;;7.82;1.77;;;;;;;;;;4998037;28;20048;-89
2022/12/24 04:54:52;;;;;;;12.70;1.88;;;;;;;;;;5014362;28;20054;-89
2022/12/24 04:57:19;;;;;;;13.10;1.92;;;;;;;;;;5014609;28;20529;-89
2022/12/24 04:59:47;;;;;;;8.10;2.55;;;;;;;;;;5015143;28;20140;-89
2022/12/24 05:02:14;;;;;;;10.57;1.75;;;;;;;;;;5015258;28;20144;-89
2022/12/24 05:04:41;;;;;;;11.35;2.03;;;;;;;;;;4997678;28;20049;-89
2022/12/24 05:07:08;;;;;;;11.75;2.13;;;;;;;;;;5015052;28;20053;-89
2022/12/24 05:09:36;;;;;;;10.48;2.17;;;;;;;;;;4997394;28;20486;-89
2022/12/24 05:12:03;;;;;;;10.23;1.77;;;;;;;;;;4998071;28;20103;-90
2022/12/24 05:14:31;;;;;;;10.60;2.03;;;;;;;;;;4997841;28;20054;-89
2022/12/24 05:16:58;;;;;;;9.75;2.00;;;;;;;;;;4997608;28;20073;-89
2022/12/24 05:19:26;;;;;;;12.98;2.35;;;;;;;;;;4997322;28;20058;-89
2022/12/24 05:27:24;;;;;;;14.43;6.72;;;;;;;;;;5014679;28;20061;-89
2022/12/24 05:29:52;;;;;;;17.38;5.95;;;;;;;;;;4997221;28;20510;-89
2022/12/24 05:32:19;;;;;;;9.88;4.75;;;;;;;;;;4997426;28;20498;-89
2022/12/24 05:34:46;;;;;;;12.48;6.35;;;;;;;;;;5014518;28;20056;-89
2022/12/24 05:37:13;;;;;;;18.25;5.60;;;;;;;;;;4997284;28;20141;-89
2022/12/24 05:39:41;;;;;;;12.65;4.28;;;;;;;;;;4997133;28;20073;-89
2022/12/24 05:42:08;;;;;;;13.52;5.63;;;;;;;;;;4997312;28;20052;-89
2022/12/24 05:44:36;;;;;;;16.23;5.35;;;;;;;;;;4996955;28;20075;-89
2022/12/24 05:47:03;;;;;;;12.55;4.53;;;;;;;;;;4997119;28;20042;-89
2022/12/24 05:49:30;;;;;;;10.05;5.30;;;;;;;;;;4996943;28;20060;-89
2022/12/24 05:51:57;;;;;;;13.82;4.00;;;;;;;;;;4997155;28;20132;-89
2022/12/24 05:54:25;;;;;;;9.48;3.38;;;;;;;;;;5013980;28;20062;-89
2022/12/24 05:56:52;;;;;;;8.05;3.35;;;;;;;;;;4996664;28;20418;-89
2022/12/24 05:59:19;;;;;;;8.40;2.85;;;;;;;;;;5004041;28;20142;-89
2022/12/24 06:01:47;;;;;;;18.63;4.70;;;;;;;;;;4997020;28;20056;-89
2022/12/24 06:04:14;;;;;;;18.95;3.90;;;;;;;;;;4996997;28;20138;-88
2022/12/24 06:06:42;;;;;;;9.32;3.67;;;;;;;;;;4996834;28;20053;-89
2022/12/24 06:09:09;;;;;;;13.95;3.97;;;;;;;;;;5014065;28;20418;-89
2022/12/24 06:11:36;;;;;;;16.52;4.28;;;;;;;;;;5013874;28;20046;-89
2022/12/24 06:14:03;;;;;;;21.80;3.70;;;;;;;;;;5013780;28;20061;-89
2022/12/24 06:16:30;;;;;;;16.10;3.65;;;;;;;;;;5013800;28;20041;-89
2022/12/24 06:18:58;;;;;;;8.85;3.83;;;;;;;;;;5013800;28;20077;-89
2022/12/24 06:21:25;;;;;;;15.82;3.70;;;;;;;;;;4996348;28;20144;-89
2022/12/24 06:23:53;;;;;;;9.38;3.60;;;;;;;;;;4996538;28;20418;-89
2022/12/24 06:26:21;;;;;;;13.95;3.88;;;;;;;;;;4996578;28;20104;-89
2022/12/24 06:28:49;;;;;;;14.25;3.75;;;;;;;;;;4996527;28;20046;-88
2022/12/24 06:31:18;;;;;;;18.25;4.35;;;;;;;;;;4996703;28;20060;-88
2022/12/24 06:33:45;;;;;;;18.38;3.90;;;;;;;;;;4996501;28;20566;-89
2022/12/24 06:36:16;;;;;;;16.10;3.83;;;;;;;;;;5013749;28;20506;-88
2022/12/24 06:38:45;;;;;;;11.77;3.50;;;;;;;;;;4996512;28;20414;-88
2022/12/24 06:41:12;;;;;;;16.92;4.72;;;;;;;;;;4996440;28;20054;-89
2022/12/24 06:43:42;;;;;;;12.23;4.03;;;;;;;;;;4996449;28;20133;-89
2022/12/24 06:46:09;;;;;;;16.83;5.13;;;;;;;;;;4996471;28;20058;-89
2022/12/24 06:48:37;;;;;;;22.85;10.35;;;;;;;;;;5013413;28;20058;-89
2022/12/24 06:51:04;;;;;;;22.50;10.95;;;;;;;;;;5013621;28;20054;-89
2022/12/24 06:53:32;;;;;;;48.50;19.83;;;;;;;;;;4996176;28;20137;-89
2022/12/24 06:56:02;;;;;;;50.00;22.08;;;;;;;;;;4996546;28;20057;-89
2022/12/24 06:58:29;;;;;;;57.17;24.42;;;;;;;;;;5013590;28;20080;-89
2022/12/24 07:00:57;;;;;;;57.65;20.23;;;;;;;;;;5013366;28;20489;-89
2022/12/24 07:03:24;;;;;;;23.05;9.32;;;;;;;;;;4996184;28;20049;-89
2022/12/24 07:05:51;;;;;;;12.40;6.70;;;;;;;;;;4995763;28;20100;-89
2022/12/24 07:08:18;;;;;;;13.25;6.88;;;;;;;;;;4996071;28;20046;-89
2022/12/24 07:10:47;;;;;;;18.30;5.05;;;;;;;;;;4996183;28;20056;-89
2022/12/24 07:13:20;;;;;;;17.92;7.32;;;;;;;;;;5013180;28;20129;-89
2022/12/24 07:15:56;;;;;;;23.13;13.85;;;;;;;;;;4996161;28;20046;-89
2022/12/24 07:18:23;;;;;;;39.95;24.17;;;;;;;;;;5014474;28;20136;-89
2022/12/24 07:20:50;;;;;;;38.90;21.17;;;;;;;;;;4999699;28;20049;-89
2022/12/24 07:23:17;;;;;;;27.38;13.65;;;;;;;;;;5000226;28;20061;-89
2022/12/24 07:25:44;;;;;;;39.78;24.10;;;;;;;;;;5017107;28;20053;-90
2022/12/24 07:28:12;;;;;;;27.85;18.95;;;;;;;;;;5017080;28;20046;-88
2022/12/24 07:30:39;;;;;;;27.27;17.48;;;;;;;;;;5016945;28;20399;-88
2022/12/24 07:33:07;;;;;;;26.92;16.02;;;;;;;;;;4999691;28;20046;-89
2022/12/24 07:35:34;;;;;;;16.40;10.15;;;;;;;;;;4999539;28;20049;-90
2022/12/24 07:38:03;;;;;;;10.38;7.20;;;;;;;;;;5017023;28;20486;-89
2022/12/24 07:40:33;;;;;;;20.20;6.90;;;;;;;;;;5016638;28;20050;-89
2022/12/24 07:43:00;;;;;;;19.55;8.55;;;;;;;;;;5016760;28;20410;-89
2022/12/24 07:45:27;;;;;;;20.83;11.82;;;;;;;;;;4999619;28;20516;-89
2022/12/24 07:47:54;;;;;;;16.98;9.95;;;;;;;;;;4999305;28;20053;-89
2022/12/24 07:50:22;;;;;;;23.05;12.40;;;;;;;;;;4999377;28;20050;-89
2022/12/24 07:52:49;;;;;;;21.33;11.93;;;;;;;;;;4999048;28;20060;-89
2022/12/24 07:55:16;;;;;;;27.30;13.43;;;;;;;;;;4998970;28;20069;-89
2022/12/24 07:57:43;;;;;;;20.63;9.48;;;;;;;;;;4999269;28;20065;-89
2022/12/24 08:00:11;;;;;;;24.30;12.32;;;;;;;;;;4999266;28;20054;-89
2022/12/24 08:02:38;;;;;;;22.17;10.50;;;;;;;;;;4999409;28;20054;-89
2022/12/24 08:05:06;;;;;;;28.13;13.10;;;;;;;;;;4999023;28;20057;-90
2022/12/24 08:07:33;;;;;;;18.15;10.15;;;;;;;;;;4998821;28;20479;-89
2022/12/24 08:10:00;;;;;;;31.92;17.70;;;;;;;;;;4999181;28;20045;-89
2022/12/24 08:12:27;;;;;;;54.97;24.90;;;;;;;;;;4998885;28;20050;-89
2022/12/24 08:14:54;;;;;;;65.65;30.65;;;;;;;;;;4998883;28;20057;-89
2022/12/24 08:17:22;;;;;;;46.05;23.05;;;;;;;;;;4998760;28;20045;-89
2022/12/24 08:19:57;;;;;;;68.00;32.45;;;;;;;;;;5000097;28;20077;-89
2022/12/24 08:22:24;;;;;;;55.65;28.40;;;;;;;;;;4998910;28;20414;-87
2022/12/24 08:24:52;;;;;;;64.40;28.90;;;;;;;;;;4998365;28;20115;-89
2022/12/24 08:27:19;;;;;;;47.65;24.05;;;;;;;;;;4998753;28;20048;-89
2022/12/24 08:29:46;;;;;;;141.93;57.95;;;;;;;;;;4997388;28;20075;-90
2022/12/24 08:32:13;;;;;;;111.40;56.50;;;;;;;;;;4998876;28;20133;-89
2022/12/24 08:34:40;;;;;;;66.90;45.30;;;;;;;;;;4998376;28;20049;-89
2022/12/24 08:37:07;;;;;;;70.18;49.38;;;;;;;;;;4998371;28;20064;-89
2022/12/24 08:39:35;;;;;;;61.55;38.92;;;;;;;;;;4998430;28;20054;-89
2022/12/24 08:42:02;;;;;;;50.55;32.15;;;;;;;;;;4998252;28;20053;-89
2022/12/24 08:44:29;;;;;;;46.63;29.80;;;;;;;;;;4998373;28;20070;-89
2022/12/24 08:46:58;;;;;;;48.90;31.27;;;;;;;;;;4998297;28;20498;-89
2022/12/24 08:49:25;;;;;;;60.00;34.63;;;;;;;;;;4998327;28;20056;-89
2022/12/24 08:51:53;;;;;;;70.28;43.42;;;;;;;;;;4998210;28;20547;-89
2022/12/24 08:54:21;;;;;;;60.30;39.05;;;;;;;;;;4997720;28;20133;-89
2022/12/24 08:56:49;;;;;;;53.28;33.63;;;;;;;;;;4982163;28;20057;-89
2022/12/24 08:59:17;;;;;;;45.63;28.25;;;;;;;;;;4998030;28;20486;-89
2022/12/24 09:01:44;;;;;;;29.23;19.33;;;;;;;;;;4998187;28;20061;-89
2022/12/24 09:04:11;;;;;;;22.27;14.23;;;;;;;;;;4998075;28;20054;-89
2022/12/24 09:06:38;;;;;;;17.35;12.18;;;;;;;;;;4997747;28;20071;-89
2022/12/24 09:09:06;;;;;;;23.48;12.23;;;;;;;;;;4997757;28;20096;-89
2022/12/24 09:11:34;;;;;;;19.38;8.18;;;;;;;;;;4997905;28;20050;-89
2022/12/24 09:14:01;;;;;;;26.48;11.98;;;;;;;;;;4997839;28;20053;-89
2022/12/24 09:16:29;;;;;;;20.00;9.32;;;;;;;;;;4998126;28;20076;-89
2022/12/24 09:18:56;;;;;;;15.77;6.20;;;;;;;;;;4997657;28;20058;-89
2022/12/24 09:21:24;;;;;;;13.43;5.82;;;;;;;;;;4997438;28;20125;-89
2022/12/24 09:23:53;;;;;;;19.80;9.18;;;;;;;;;;4997877;28;20050;-89
2022/12/24 09:26:24;;;;;;;16.38;9.68;;;;;;;;;;4997380;28;20061;-88
2022/12/24 09:28:52;;;;;;;16.50;9.32;;;;;;;;;;4997513;28;20046;-89
2022/12/24 09:31:20;;;;;;;19.60;8.45;;;;;;;;;;4997423;28;20054;-88
2022/12/24 09:33:49;;;;;;;35.58;25.85;;;;;;;;;;4997522;28;20058;-89
2022/12/24 09:36:16;;;;;;;23.35;15.25;;;;;;;;;;4997247;28;20050;-89
2022/12/24 09:38:44;;;;;;;20.20;11.40;;;;;;;;;;4997292;28;20054;-88
2022/12/24 09:41:31;;;;;;;28.52;18.27;;;;;;;;;;4996971;28;20405;-89
2022/12/24 09:44:06;;;;;;;29.98;18.20;;;;;;;;;;5013455;28;20068;-88
2022/12/24 09:46:35;;;;;;;22.90;15.13;;;;;;;;;;4996799;28;20054;-89
2022/12/24 09:49:05;;;;;;;14.57;8.10;;;;;;;;;;4997084;28;20060;-89
2022/12/24 09:51:38;;;;;;;6.10;2.60;;;;;;;;;;4997248;28;20060;-89
2022/12/24 09:54:12;;;;;;;9.23;3.72;;;;;;;;;;4996868;28;20054;-89
2022/12/24 09:56:42;;;;;;;2.20;0.98;;;;;;;;;;4996862;28;20513;-88
2022/12/24 09:59:13;;;;;;;1.95;0.60;;;;;;;;;;4996819;28;20068;-89
2022/12/24 10:01:40;;;;;;;5.55;1.60;;;;;;;;;;4994709;28;20336;-89
2022/12/24 10:04:15;;;;;;;0.70;0.57;;;;;;;;;;4995718;28;20084;-88
2022/12/24 10:06:50;;;;;;;2.42;0.70;;;;;;;;;;4995247;28;20046;-88
2022/12/24 10:09:32;;;;;;;2.72;0.73;;;;;;;;;;4995663;28;20052;-88
2022/12/24 10:12:09;;;;;;;3.63;0.82;;;;;;;;;;4996111;28;20054;-88
2022/12/24 10:14:55;;;;;;;2.33;1.80;;;;;;;;;;4995474;28;20568;-88
2022/12/24 10:17:30;;;;;;;1.77;1.35;;;;;;;;;;4996361;28;20054;-88
2022/12/24 10:19:57;;;;;;;3.15;1.90;;;;;;;;;;4996751;28;20053;-88
2022/12/24 10:22:38;;;;;;;2.75;1.00;;;;;;;;;;4996515;28;20072;-88
2022/12/24 10:25:20;;;;;;;2.83;0.98;;;;;;;;;;4996293;28;20132;-89
2022/12/24 10:27:47;;;;;;;3.50;1.08;;;;;;;;;;4996263;28;20060;-88
2022/12/24 10:30:19;;;;;;;3.38;1.55;;;;;;;;;;4996259;28;20054;-89
2022/12/24 10:32:50;;;;;;;3.80;1.30;;;;;;;;;;4996454;28;20050;-88
2022/12/24 10:35:34;;;;;;;3.15;1.10;;;;;;;;;;4995827;28;20053;-88
2022/12/24 10:38:03;;;;;;;4.88;1.65;;;;;;;;;;4996693;28;20056;-88
2022/12/24 10:40:33;;;;;;;3.03;1.58;;;;;;;;;;4996356;28;20144;-88
2022/12/24 10:43:01;;;;;;;8.63;1.50;;;;;;;;;;4996404;28;20045;-88
2022/12/24 10:45:36;;;;;;;5.60;1.42;;;;;;;;;;4996153;28;20052;-88
2022/12/24 10:48:06;;;;;;;4.18;1.45;;;;;;;;;;4996427;28;20141;-87
2022/12/24 10:50:42;;;;;;;4.07;1.30;;;;;;;;;;4996133;28;20081;-88
2022/12/24 10:53:17;;;;;;;3.80;1.20;;;;;;;;;;4996819;28;20049;-87
2022/12/24 10:55:46;;;;;;;4.63;1.27;;;;;;;;;;5000533;28;20140;-88
2022/12/24 10:58:16;;;;;;;7.53;1.48;;;;;;;;;;5000249;28;20487;-88
2022/12/24 11:00:49;;;;;;;7.55;2.33;;;;;;;;;;5000135;28;20058;-89
2022/12/24 11:03:30;;;;;;;8.73;3.33;;;;;;;;;;5000177;28;20050;-88
2022/12/24 11:06:03;;;;;;;8.10;1.75;;;;;;;;;;5000211;28;20053;-89
2022/12/24 11:08:30;;;;;;;5.75;1.63;;;;;;;;;;4999472;28;20490;-88
2022/12/24 11:10:59;;;;;;;8.35;2.20;;;;;;;;;;5000230;28;20085;-88
2022/12/24 11:13:45;;;;;;;9.57;2.60;;;;;;;;;;4999802;28;20050;-89
2022/12/24 11:16:17;;;;;;;8.77;2.17;;;;;;;;;;4999727;28;20052;-88
2022/12/24 11:18:55;;;;;;;8.02;2.75;;;;;;;;;;4999948;28;20050;-88
2022/12/24 11:21:30;;;;;;;3.88;1.60;;;;;;;;;;4999895;28;20482;-88
2022/12/24 11:24:00;;;;;;;3.65;1.90;;;;;;;;;;4999631;28;20112;-88
2022/12/24 11:26:28;;;;;;;7.60;1.52;;;;;;;;;;4999637;28;20104;-88
2022/12/24 11:29:08;;;;;;;5.07;1.67;;;;;;;;;;4999659;28;20478;-88
2022/12/24 11:31:36;;;;;;;4.70;1.63;;;;;;;;;;4999831;28;20111;-88
2022/12/24 11:34:23;;;;;;;7.68;2.53;;;;;;;;;;4999657;28;20061;-89
2022/12/24 11:36:51;;;;;;;7.28;2.30;;;;;;;;;;5015883;28;20225;-88
2022/12/24 11:39:20;;;;;;;7.07;2.20;;;;;;;;;;4999636;28;20085;-88
2022/12/24 11:41:49;;;;;;;9.27;2.35;;;;;;;;;;4999298;28;20057;-88
2022/12/24 11:44:26;;;;;;;7.32;2.25;;;;;;;;;;4999360;28;20116;-88
2022/12/24 11:46:57;;;;;;;8.80;2.33;;;;;;;;;;4999032;28;20050;-88
2022/12/24 11:49:31;;;;;;;6.63;2.38;;;;;;;;;;4999143;28;20054;-88
2022/12/24 11:52:10;;;;;;;13.60;3.30;;;;;;;;;;4999772;28;20064;-89
2022/12/24 11:54:56;;;;;;;8.85;4.00;;;;;;;;;;4998939;28;20038;-88
2022/12/24 11:57:25;;;;;;;6.35;2.78;;;;;;;;;;4998988;28;20054;-89
2022/12/24 11:59:52;;;;;;;5.50;1.75;;;;;;;;;;4999147;28;20080;-88
2022/12/24 12:02:26;;;;;;;5.97;1.80;;;;;;;;;;4999363;28;20050;-88
2022/12/24 12:04:55;;;;;;;8.15;1.30;;;;;;;;;;4998849;28;20064;-88
2022/12/24 12:07:34;;;;;;;3.78;1.00;;;;;;;;;;4998642;28;20061;-89
2022/12/24 12:10:07;;;;;;;4.60;1.08;;;;;;;;;;4998554;28;20565;-88
2022/12/24 12:12:38;;;;;;;3.33;1.00;;;;;;;;;;4998729;28;20137;-87
2022/12/24 12:15:12;;;;;;;5.18;1.52;;;;;;;;;;4998873;28;20052;-88
2022/12/24 12:17:39;;;;;;;;;;;;;;;;;;4999115;28;20137;-87
2022/12/24 12:20:11;;;;;;;5.43;1.35;;;;;;;;;;4998451;28;20012;-88
2022/12/24 12:22:38;;;;;;;6.28;1.75;;;;;;;;;;4998579;28;20062;-87
2022/12/24 12:25:07;;;;;;;2.67;1.15;;;;;;;;;;4998570;28;20056;-88
2022/12/24 12:27:39;;;;;;;3.30;1.40;;;;;;;;;;4998582;28;20045;-87
2022/12/24 12:30:12;;;;;;;3.17;1.27;;;;;;;;;;4998458;28;20062;-88
2022/12/24 12:32:47;;;;;;;3.15;2.15;;;;;;;;;;4998696;28;20050;-87
2022/12/24 12:35:24;;;;;;;3.70;1.13;;;;;;;;;;4998580;28;20050;-88
2022/12/24 12:37:54;;;;;;;2.88;0.90;;;;;;;;;;4998619;28;20054;-88
2022/12/24 12:40:23;;;;;;;1.75;0.60;;;;;;;;;;4998111;28;20050;-87
2022/12/24 12:43:07;;;;;;;5.18;0.80;;;;;;;;;;4998236;28;20140;-88
2022/12/24 12:45:57;;;;;;;2.92;0.75;;;;;;;;;;4998916;28;20054;-87
2022/12/24 12:48:24;;;;;;;;;;;;;;;;;;4998747;28;20046;-88
2022/12/24 12:50:58;;;;;;;3.95;1.02;;;;;;;;;;4998177;28;19940;-88
2022/12/24 12:53:44;;;;;;;2.58;0.70;;;;;;;;;;4997801;28;20056;-88
2022/12/24 12:56:27;;;;;;;2.10;0.95;;;;;;;;;;4997001;28;20487;-87
2022/12/24 12:58:57;;;;;;;2.45;0.90;;;;;;;;;;4997150;28;20052;-87
2022/12/24 13:01:28;;;;;;;2.35;0.73;;;;;;;;;;4996428;28;20057;-88
2022/12/24 13:04:11;;;;;;;1.40;0.70;;;;;;;;;;4997426;28;20058;-87
2022/12/24 13:07:01;;;;;;;1.65;0.70;;;;;;;;;;4996508;28;20054;-88
2022/12/24 13:09:39;;;;;;;3.60;0.80;;;;;;;;;;4996825;28;20486;-88
2022/12/24 13:12:12;;;;;;;2.80;0.63;;;;;;;;;;4996749;28;20600;-88
2022/12/24 13:14:58;;;;;;;3.22;0.65;;;;;;;;;;4996782;28;20050;-87
2022/12/24 13:17:45;;;;;;;5.10;1.45;;;;;;;;;;4995991;28;20060;-88
2022/12/24 13:20:28;;;;;;;5.55;1.05;;;;;;;;;;4996686;28;20517;-89
2022/12/24 13:22:58;;;;;;;4.60;1.27;;;;;;;;;;4996655;28;20525;-87
2022/12/24 13:25:28;;;;;;;4.00;1.40;;;;;;;;;;4996627;28;20050;-88
2022/12/24 13:27:55;;;;;;;5.68;1.20;;;;;;;;;;4996745;28;20057;-88
2022/12/24 13:30:33;;;;;;;8.30;1.85;;;;;;;;;;4996582;28;20049;-88
2022/12/24 13:33:01;;;;;;;5.07;1.60;;;;;;;;;;4996670;28;20410;-88
2022/12/24 13:35:30;;;;;;;9.00;2.17;;;;;;;;;;4996454;28;20054;-87
2022/12/24 13:38:23;;;;;;;3.15;1.15;;;;;;;;;;4997629;28;20061;-88
2022/12/24 13:40:50;;;;;;;9.68;1.92;;;;;;;;;;4996216;28;20053;-89
2022/12/24 13:43:17;;;;;;;5.60;1.48;;;;;;;;;;4996351;28;20064;-88
2022/12/24 13:45:48;;;;;;;6.53;2.08;;;;;;;;;;4995980;28;20054;-88
2022/12/24 13:48:16;;;;;;;7.18;1.80;;;;;;;;;;4996487;28;20472;-87
2022/12/24 13:50:56;;;;;;;7.95;1.48;;;;;;;;;;5013246;28;20042;-88
2022/12/24 13:53:36;;;;;;;8.15;1.40;;;;;;;;;;4958900;28;1065751;-88
2022/12/24 13:56:19;;;;;;;8.43;1.75;;;;;;;;;;4996964;28;20046;-88
2022/12/24 13:58:48;;;;;;;7.05;1.55;;;;;;;;;;4997018;28;20073;-88
2022/12/24 14:01:32;;;;;;;9.52;2.15;;;;;;;;;;4996627;28;20081;-88
2022/12/24 14:04:01;;;;;;;10.57;2.70;;;;;;;;;;4996952;28;20060;-88
2022/12/24 14:06:31;;;;;;;7.68;1.80;;;;;;;;;;4996738;28;20147;-88
2022/12/24 14:09:08;;;;;;;8.82;2.17;;;;;;;;;;4996622;28;20057;-88
2022/12/24 14:11:54;;;;;;;7.78;2.13;;;;;;;;;;4996861;28;20414;-88
2022/12/24 14:14:27;;;;;;;6.80;2.00;;;;;;;;;;4996693;28;20467;-88
2022/12/24 14:16:56;;;;;;;9.65;2.85;;;;;;;;;;4996795;28;20406;-87
2022/12/24 14:19:40;;;;;;;9.68;2.40;;;;;;;;;;5013722;28;20058;-88
2022/12/24 14:22:21;;;;;;;13.05;2.90;;;;;;;;;;4996792;28;20215;-88
2022/12/24 14:25:11;;;;;;;14.97;2.43;;;;;;;;;;4996976;28;20049;-87
2022/12/24 14:27:39;;;;;;;8.70;2.33;;;;;;;;;;5011614;28;20058;-87
2022/12/24 14:30:07;;;;;;;7.35;1.88;;;;;;;;;;4996416;28;20060;-88
2022/12/24 14:32:36;;;;;;;7.75;2.08;;;;;;;;;;4996157;28;20046;-88
2022/12/24 14:35:07;;;;;;;13.50;2.65;;;;;;;;;;4996439;28;20049;-88
2022/12/24 14:37:35;;;;;;;9.13;2.05;;;;;;;;;;4996470;28;20046;-88
2022/12/24 14:40:03;;;;;;;10.77;1.50;;;;;;;;;;4996370;28;20045;-88
2022/12/24 14:42:35;;;;;;;11.15;2.10;;;;;;;;;;4996218;28;20050;-88
2022/12/24 14:45:24;;;;;;;12.13;2.00;;;;;;;;;;4996554;28;20049;-88
2022/12/24 14:48:01;;;;;;;9.32;2.10;;;;;;;;;;4996120;28;20053;-88
2022/12/24 14:50:48;;;;;;;9.55;2.88;;;;;;;;;;4996272;28;20049;-88
2022/12/24 14:53:37;;;;;;;10.65;3.20;;;;;;;;;;5002781;28;20060;-88
2022/12/24 14:56:14;;;;;;;8.82;2.53;;;;;;;;;;4996386;28;20076;-88
2022/12/24 14:58:42;;;;;;;12.13;2.70;;;;;;;;;;4996297;28;20145;-88
2022/12/24 15:01:25;;;;;;;8.52;2.35;;;;;;;;;;4996315;28;20514;-88
2022/12/24 15:03:53;;;;;;;;;;;;;;;;;;4996821;28;20108;-88
2022/12/24 15:06:20;;;;;;;12.13;4.25;;;;;;;;;;4995912;28;20296;-88